sensor_id;sensor_type;location;lat;lon;timestamp;pressure;altitude;pressure_sealevel;temperature;humidity
34177;BME280;20450;49.074;9.158;2023-02-18T00:01:33;100649.91;;;13.32;71.49
34177;BME280;20450;49.074;9.158;2023-02-18T00:04:00;100659.94;;;13.31;71.56
34177;BME280;20450;49.074;9.158;2023-02-18T00:06:31;100656.38;;;13.31;71.45
34177;BME280;20450;49.074;9.158;2023-02-18T00:09:00;100667.66;;;13.34;71.43
34177;BME280;20450;49.074;9.158;2023-02-18T00:11:29;100655.34;;;13.32;71.45
34177;BME280;20450;49.074;9.158;2023-02-18T00:13:59;100652.63;;;13.32;71.52
34177;BME280;20450;49.074;9.158;2023-02-18T00:16:29;100660.75;;;13.32;71.49
34177;BME280;20450;49.074;9.158;2023-02-18T00:18:59;100658.91;;;13.32;71.68
34177;BME280;20450;49.074;9.158;2023-02-18T00:21:29;100655.34;;;13.32;71.77
34177;BME280;20450;49.074;9.158;2023-02-18T00:23:58;100656.19;;;13.32;71.22
34177;BME280;20450;49.074;9.158;2023-02-18T00:26:26;100656.59;;;13.36;71.60
34177;BME280;20450;49.074;9.158;2023-02-18T00:28:53;100649.50;;;13.35;71.48
34177;BME280;20450;49.074;9.158;2023-02-18T00:31:22;100652.41;;;13.33;71.54
34177;BME280;20450;49.074;9.158;2023-02-18T00:33:51;100657.22;;;13.31;71.70
34177;BME280;20450;49.074;9.158;2023-02-18T00:36:21;100650.97;;;13.31;71.63
34177;BME280;20450;49.074;9.158;2023-02-18T00:38:52;100636.34;;;13.32;71.46
34177;BME280;20450;49.074;9.158;2023-02-18T00:41:21;100641.16;;;13.30;71.59
34177;BME280;20450;49.074;9.158;2023-02-18T00:43:50;100639.91;;;13.32;71.26
34177;BME280;20450;49.074;9.158;2023-02-18T00:46:18;100644.47;;;13.32;71.29
34177;BME280;20450;49.074;9.158;2023-02-18T00:48:46;100645.75;;;13.29;71.22
34177;BME280;20450;49.074;9.158;2023-02-18T00:51:13;100644.47;;;13.32;71.10
34177;BME280;20450;49.074;9.158;2023-02-18T00:53:42;100638.44;;;13.30;71.10
34177;BME280;20450;49.074;9.158;2023-02-18T00:56:09;100638.84;;;13.33;70.84
34177;BME280;20450;49.074;9.158;2023-02-18T00:58:37;100634.25;;;13.34;70.73
34177;BME280;20450;49.074;9.158;2023-02-18T01:01:05;100630.69;;;13.33;71.16
34177;BME280;20450;49.074;9.158;2023-02-18T01:03:33;100640.31;;;13.36;70.61
34177;BME280;20450;49.074;9.158;2023-02-18T01:06:00;100631.13;;;13.37;70.66
34177;BME280;20450;49.074;9.158;2023-02-18T01:08:28;100631.13;;;13.37;70.57
34177;BME280;20450;49.074;9.158;2023-02-18T01:11:12;100640.94;;;13.38;70.79
34177;BME280;20450;49.074;9.158;2023-02-18T01:13:39;100637.19;;;13.39;70.80
34177;BME280;20450;49.074;9.158;2023-02-18T01:16:07;100637.63;;;13.36;70.69
34177;BME280;20450;49.074;9.158;2023-02-18T01:18:36;100639.28;;;13.37;70.95
34177;BME280;20450;49.074;9.158;2023-02-18T01:21:04;100645.34;;;13.39;71.13
34177;BME280;20450;49.074;9.158;2023-02-18T01:23:31;100636.13;;;13.33;71.04
34177;BME280;20450;49.074;9.158;2023-02-18T01:25:58;100635.09;;;13.34;71.22
34177;BME280;20450;49.074;9.158;2023-02-18T01:28:26;100627.78;;;13.35;71.05
34177;BME280;20450;49.074;9.158;2023-02-18T01:30:53;100630.91;;;13.32;70.85
34177;BME280;20450;49.074;9.158;2023-02-18T01:33:20;100625.91;;;13.29;71.51
34177;BME280;20450;49.074;9.158;2023-02-18T01:35:48;100635.31;;;13.26;71.94
34177;BME280;20450;49.074;9.158;2023-02-18T01:38:17;100623.59;;;13.26;71.66
34177;BME280;20450;49.074;9.158;2023-02-18T01:40:49;100625.28;;;13.27;71.93
34177;BME280;20450;49.074;9.158;2023-02-18T01:43:18;100617.56;;;13.24;71.83
34177;BME280;20450;49.074;9.158;2023-02-18T01:45:56;100613.81;;;13.25;72.04
34177;BME280;20450;49.074;9.158;2023-02-18T01:48:31;100621.94;;;13.25;71.84
34177;BME280;20450;49.074;9.158;2023-02-18T01:51:06;100616.09;;;13.21;71.93
34177;BME280;20450;49.074;9.158;2023-02-18T01:53:44;100615.91;;;13.16;72.28
34177;BME280;20450;49.074;9.158;2023-02-18T01:56:22;100629.25;;;13.18;72.29
34177;BME280;20450;49.074;9.158;2023-02-18T01:58:54;100629.03;;;13.19;72.20
34177;BME280;20450;49.074;9.158;2023-02-18T02:01:27;100620.47;;;13.16;72.29
34177;BME280;20450;49.074;9.158;2023-02-18T02:03:54;100624.03;;;13.16;71.84
34177;BME280;20450;49.074;9.158;2023-02-18T02:06:23;100621.13;;;13.18;71.75
34177;BME280;20450;49.074;9.158;2023-02-18T02:08:54;100609.22;;;13.19;71.53
34177;BME280;20450;49.074;9.158;2023-02-18T02:11:47;100604.41;;;13.21;71.25
34177;BME280;20450;49.074;9.158;2023-02-18T02:14:47;100605.03;;;13.23;71.34
34177;BME280;20450;49.074;9.158;2023-02-18T02:17:33;100596.88;;;13.23;71.48
34177;BME280;20450;49.074;9.158;2023-02-18T02:23:50;100601.72;;;13.21;71.52
34177;BME280;20450;49.074;9.158;2023-02-18T02:27:08;100599.41;;;13.18;71.65
34177;BME280;20450;49.074;9.158;2023-02-18T02:33:23;100609.63;;;13.16;71.87
34177;BME280;20450;49.074;9.158;2023-02-18T02:36:08;100608.19;;;13.13;72.29
34177;BME280;20450;49.074;9.158;2023-02-18T02:38:50;100597.31;;;13.13;72.14
34177;BME280;20450;49.074;9.158;2023-02-18T02:41:32;100607.13;;;13.14;72.05
34177;BME280;20450;49.074;9.158;2023-02-18T02:44:18;100607.75;;;13.16;72.06
34177;BME280;20450;49.074;9.158;2023-02-18T02:46:50;100601.69;;;13.14;72.20
34177;BME280;20450;49.074;9.158;2023-02-18T02:49:31;100588.75;;;13.10;72.38
34177;BME280;20450;49.074;9.158;2023-02-18T02:52:11;100590.63;;;13.09;72.27
34177;BME280;20450;49.074;9.158;2023-02-18T02:54:40;100580.41;;;13.11;72.36
34177;BME280;20450;49.074;9.158;2023-02-18T02:57:41;100600.25;;;13.12;72.30
34177;BME280;20450;49.074;9.158;2023-02-18T03:00:17;100587.31;;;13.07;72.25
34177;BME280;20450;49.074;9.158;2023-02-18T03:03:03;100582.28;;;13.04;72.33
34177;BME280;20450;49.074;9.158;2023-02-18T03:06:06;100579.38;;;13.06;72.39
34177;BME280;20450;49.074;9.158;2023-02-18T03:08:56;100577.91;;;13.03;72.57
34177;BME280;20450;49.074;9.158;2023-02-18T03:11:40;100562.47;;;13.04;72.58
34177;BME280;20450;49.074;9.158;2023-02-18T03:14:20;100559.97;;;13.02;72.46
34177;BME280;20450;49.074;9.158;2023-02-18T03:16:59;100547.66;;;13.00;72.85
34177;BME280;20450;49.074;9.158;2023-02-18T03:19:34;100562.44;;;12.97;73.02
34177;BME280;20450;49.074;9.158;2023-02-18T03:22:08;100549.09;;;12.96;72.94
34177;BME280;20450;49.074;9.158;2023-02-18T03:24:42;100571.41;;;12.98;73.18
34177;BME280;20450;49.074;9.158;2023-02-18T03:27:16;100575.16;;;12.97;73.13
34177;BME280;20450;49.074;9.158;2023-02-18T03:29:52;100563.06;;;12.93;73.31
34177;BME280;20450;49.074;9.158;2023-02-18T03:32:33;100563.88;;;12.93;73.37
34177;BME280;20450;49.074;9.158;2023-02-18T03:35:04;100571.19;;;12.93;73.41
34177;BME280;20450;49.074;9.158;2023-02-18T03:37:38;100576.63;;;12.93;73.58
34177;BME280;20450;49.074;9.158;2023-02-18T03:40:11;100575.16;;;12.90;73.99
34177;BME280;20450;49.074;9.158;2023-02-18T03:42:39;100574.75;;;12.87;74.08
34177;BME280;20450;49.074;9.158;2023-02-18T03:45:06;100577.22;;;12.82;74.21
34177;BME280;20450;49.074;9.158;2023-02-18T03:47:34;100579.72;;;12.83;74.39
34177;BME280;20450;49.074;9.158;2023-02-18T03:50:01;100568.66;;;12.78;74.54
34177;BME280;20450;49.074;9.158;2023-02-18T03:52:28;100569.50;;;12.79;74.59
34177;BME280;20450;49.074;9.158;2023-02-18T03:54:55;100573.28;;;12.78;75.06
34177;BME280;20450;49.074;9.158;2023-02-18T03:57:23;100564.91;;;12.73;75.19
34177;BME280;20450;49.074;9.158;2023-02-18T03:59:50;100561.16;;;12.74;75.52
34177;BME280;20450;49.074;9.158;2023-02-18T04:02:17;100545.91;;;12.66;75.71
34177;BME280;20450;49.074;9.158;2023-02-18T04:04:43;100554.44;;;12.63;76.14
34177;BME280;20450;49.074;9.158;2023-02-18T04:07:11;100552.41;;;12.59;76.42
34177;BME280;20450;49.074;9.158;2023-02-18T04:09:58;100546.34;;;12.57;76.76
34177;BME280;20450;49.074;9.158;2023-02-18T04:12:26;100540.69;;;12.52;76.59
34177;BME280;20450;49.074;9.158;2023-02-18T04:14:53;100541.09;;;12.49;76.78
34177;BME280;20450;49.074;9.158;2023-02-18T04:17:20;100548.19;;;12.50;76.93
34177;BME280;20450;49.074;9.158;2023-02-18T07:03:24;100538.91;;;13.04;71.38
34177;BME280;20450;49.074;9.158;2023-02-18T07:05:51;100517.19;;;13.04;71.25
34177;BME280;20450;49.074;9.158;2023-02-18T07:08:18;100529.09;;;13.03;70.89
34177;BME280;20450;49.074;9.158;2023-02-18T07:10:45;100528.22;;;13.09;71.08
34177;BME280;20450;49.074;9.158;2023-02-18T07:13:12;100523.03;;;13.14;70.66
34177;BME280;20450;49.074;9.158;2023-02-18T07:15:39;100526.75;;;13.20;70.37
34177;BME280;20450;49.074;9.158;2023-02-18T07:18:06;100526.75;;;13.20;69.89
34177;BME280;20450;49.074;9.158;2023-02-18T07:20:35;100523.22;;;13.26;69.85
34177;BME280;20450;49.074;9.158;2023-02-18T07:23:02;100522.78;;;13.29;69.76
34177;BME280;20450;49.074;9.158;2023-02-18T07:25:28;100519.06;;;13.30;69.29
34177;BME280;20450;49.074;9.158;2023-02-18T07:27:55;100512.16;;;13.27;69.18
34177;BME280;20450;49.074;9.158;2023-02-18T07:30:22;100507.34;;;13.29;69.08
34177;BME280;20450;49.074;9.158;2023-02-18T07:32:49;100506.72;;;13.27;69.48
34177;BME280;20450;49.074;9.158;2023-02-18T07:35:17;100500.88;;;13.30;68.56
34177;BME280;20450;49.074;9.158;2023-02-18T07:37:46;100498.78;;;13.32;68.35
34177;BME280;20450;49.074;9.158;2023-02-18T07:40:17;100490.03;;;13.37;68.19
34177;BME280;20450;49.074;9.158;2023-02-18T07:42:45;100501.09;;;13.42;68.07
34177;BME280;20450;49.074;9.158;2023-02-18T07:45:12;100496.88;;;13.46;67.89
34177;BME280;20450;49.074;9.158;2023-02-18T07:47:40;100495.00;;;13.46;67.65
34177;BME280;20450;49.074;9.158;2023-02-18T07:50:08;100496.25;;;13.50;67.41
34177;BME280;20450;49.074;9.158;2023-02-18T07:52:35;100498.31;;;13.55;67.45
34177;BME280;20450;49.074;9.158;2023-02-18T07:55:04;100504.78;;;13.54;67.22
34177;BME280;20450;49.074;9.158;2023-02-18T07:57:32;100499.13;;;13.55;67.19
34177;BME280;20450;49.074;9.158;2023-02-18T07:59:58;100502.69;;;13.56;66.92
34177;BME280;20450;49.074;9.158;2023-02-18T08:02:26;100493.53;;;13.50;66.77
34177;BME280;20450;49.074;9.158;2023-02-18T08:04:53;100497.47;;;13.54;66.77
34177;BME280;20450;49.074;9.158;2023-02-18T08:07:24;100500.19;;;13.61;66.84
34177;BME280;20450;49.074;9.158;2023-02-18T08:09:54;100498.06;;;13.63;66.65
34177;BME280;20450;49.074;9.158;2023-02-18T08:12:22;100512.50;;;13.63;66.35
34177;BME280;20450;49.074;9.158;2023-02-18T08:19:23;100494.72;;;13.67;66.24
34177;BME280;20450;49.074;9.158;2023-02-18T08:21:50;100484.91;;;13.73;65.74
34177;BME280;20450;49.074;9.158;2023-02-18T08:24:17;100495.72;;;13.79;65.45
34177;BME280;20450;49.074;9.158;2023-02-18T08:26:44;100495.06;;;13.84;65.81
34177;BME280;20450;49.074;9.158;2023-02-18T08:29:28;100496.94;;;13.90;65.25
34177;BME280;20450;49.074;9.158;2023-02-18T08:31:55;100487.53;;;13.93;64.84
34177;BME280;20450;49.074;9.158;2023-02-18T08:34:48;100495.47;;;13.94;64.46
34177;BME280;20450;49.074;9.158;2023-02-18T08:37:15;100509.22;;;13.99;64.33
34177;BME280;20450;49.074;9.158;2023-02-18T08:39:42;100502.72;;;14.00;64.33
34177;BME280;20450;49.074;9.158;2023-02-18T08:42:10;100508.97;;;14.07;64.24
34177;BME280;20450;49.074;9.158;2023-02-18T08:44:46;100491.19;;;14.11;64.02
34177;BME280;20450;49.074;9.158;2023-02-18T08:47:20;100489.97;;;14.07;63.93
34177;BME280;20450;49.074;9.158;2023-02-18T08:50:39;100499.97;;;14.13;63.56
34177;BME280;20450;49.074;9.158;2023-02-18T08:53:36;100489.09;;;14.13;63.79
34177;BME280;20450;49.074;9.158;2023-02-18T08:56:05;100492.81;;;14.19;63.91
34177;BME280;20450;49.074;9.158;2023-02-18T08:58:33;100499.31;;;14.18;63.82
34177;BME280;20450;49.074;9.158;2023-02-18T09:01:02;100494.53;;;14.13;63.89
34177;BME280;20450;49.074;9.158;2023-02-18T09:03:31;100495.19;;;14.09;63.76
34177;BME280;20450;49.074;9.158;2023-02-18T09:05:59;100484.47;;;14.14;63.66
34177;BME280;20450;49.074;9.158;2023-02-18T09:08:27;100488.81;;;14.21;63.46
34177;BME280;20450;49.074;9.158;2023-02-18T09:10:55;100486.09;;;14.21;63.41
34177;BME280;20450;49.074;9.158;2023-02-18T09:13:23;100472.53;;;14.21;63.17
34177;BME280;20450;49.074;9.158;2023-02-18T09:15:58;100482.19;;;14.24;63.86
34177;BME280;20450;49.074;9.158;2023-02-18T09:18:28;100474.22;;;14.22;64.26
34177;BME280;20450;49.074;9.158;2023-02-18T09:21:07;100479.25;;;14.25;64.07
34177;BME280;20450;49.074;9.158;2023-02-18T09:23:35;100472.06;;;14.37;64.40
34177;BME280;20450;49.074;9.158;2023-02-18T09:26:04;100464.91;;;14.43;63.43
34177;BME280;20450;49.074;9.158;2023-02-18T09:28:32;100456.53;;;14.44;63.53
34177;BME280;20450;49.074;9.158;2023-02-18T09:31:03;100461.97;;;14.44;63.65
34177;BME280;20450;49.074;9.158;2023-02-18T09:33:35;100462.13;;;14.49;64.08
34177;BME280;20450;49.074;9.158;2023-02-18T09:36:02;100465.88;;;14.55;63.17
34177;BME280;20450;49.074;9.158;2023-02-18T09:38:33;100452.31;;;14.48;62.70
34177;BME280;20450;49.074;9.158;2023-02-18T09:41:02;100464.41;;;14.52;63.25
34177;BME280;20450;49.074;9.158;2023-02-18T09:43:35;100465.88;;;14.55;63.07
34177;BME280;20450;49.074;9.158;2023-02-18T09:46:16;100465.31;;;14.46;63.48
34177;BME280;20450;49.074;9.158;2023-02-18T09:48:51;100458.63;;;14.42;63.65
34177;BME280;20450;49.074;9.158;2023-02-18T09:51:19;100458.97;;;14.52;63.56
34177;BME280;20450;49.074;9.158;2023-02-18T09:53:46;100463.38;;;14.53;62.61
34177;BME280;20450;49.074;9.158;2023-02-18T09:56:16;100463.81;;;14.50;63.26
34177;BME280;20450;49.074;9.158;2023-02-18T09:58:48;100472.34;;;14.54;63.41
34177;BME280;20450;49.074;9.158;2023-02-18T10:01:21;100462.75;;;14.51;62.74
34177;BME280;20450;49.074;9.158;2023-02-18T10:03:57;100469.41;;;14.55;63.46
34177;BME280;20450;49.074;9.158;2023-02-18T10:06:30;100485.28;;;14.58;62.90
34177;BME280;20450;49.074;9.158;2023-02-18T10:09:01;100488.84;;;14.59;63.22
34177;BME280;20450;49.074;9.158;2023-02-18T10:11:34;100470.25;;;14.56;62.87
34177;BME280;20450;49.074;9.158;2023-02-18T10:14:10;100485.13;;;14.53;62.33
34177;BME280;20450;49.074;9.158;2023-02-18T10:16:40;100482.78;;;14.57;62.83
34177;BME280;20450;49.074;9.158;2023-02-18T10:19:20;100490.28;;;14.61;62.06
34177;BME280;20450;49.074;9.158;2023-02-18T10:21:51;100483.88;;;14.49;61.98
34177;BME280;20450;49.074;9.158;2023-02-18T10:24:26;100482.22;;;14.48;61.96
34177;BME280;20450;49.074;9.158;2023-02-18T10:26:57;100471.13;;;14.50;62.17
34177;BME280;20450;49.074;9.158;2023-02-18T10:29:26;100481.13;;;14.56;61.90
34177;BME280;20450;49.074;9.158;2023-02-18T10:32:05;100484.16;;;14.41;62.92
34177;BME280;20450;49.074;9.158;2023-02-18T10:34:52;100476.25;;;14.33;63.68
34177;BME280;20450;49.074;9.158;2023-02-18T10:37:46;100480.88;;;14.33;64.86
34177;BME280;20450;49.074;9.158;2023-02-18T10:45:25;100474.13;;;14.42;63.99
34177;BME280;20450;49.074;9.158;2023-02-18T10:48:57;100470.38;;;14.36;64.32
34177;BME280;20450;49.074;9.158;2023-02-18T10:51:33;100478.72;;;14.41;65.76
34177;BME280;20450;49.074;9.158;2023-02-18T10:54:03;100466.63;;;14.37;64.61
34177;BME280;20450;49.074;9.158;2023-02-18T10:56:37;100458.03;;;14.40;64.69
34177;BME280;20450;49.074;9.158;2023-02-18T10:59:11;100461.75;;;14.46;65.04
34177;BME280;20450;49.074;9.158;2023-02-18T11:01:40;100452.38;;;14.42;64.71
34177;BME280;20450;49.074;9.158;2023-02-18T11:04:14;100462.44;;;14.35;64.40
34177;BME280;20450;49.074;9.158;2023-02-18T11:06:47;100457.59;;;14.43;64.83
34177;BME280;20450;49.074;9.158;2023-02-18T11:09:28;100454.13;;;14.30;64.59
34177;BME280;20450;49.074;9.158;2023-02-18T11:12:03;100455.81;;;14.24;64.60
34177;BME280;20450;49.074;9.158;2023-02-18T11:14:37;100451.00;;;14.20;65.36
34177;BME280;20450;49.074;9.158;2023-02-18T11:17:09;100449.75;;;14.22;65.12
34177;BME280;20450;49.074;9.158;2023-02-18T11:19:42;100450.84;;;14.15;65.47
34177;BME280;20450;49.074;9.158;2023-02-18T11:22:20;100457.16;;;14.09;65.95
34177;BME280;20450;49.074;9.158;2023-02-18T11:24:54;100455.09;;;13.98;66.27
34177;BME280;20450;49.074;9.158;2023-02-18T11:27:25;100454.50;;;13.96;66.56
34177;BME280;20450;49.074;9.158;2023-02-18T11:29:59;100454.72;;;13.94;66.54
34177;BME280;20450;49.074;9.158;2023-02-18T11:32:33;100447.81;;;13.92;67.40
34177;BME280;20450;49.074;9.158;2023-02-18T11:35:03;100440.09;;;13.88;67.57
34177;BME280;20450;49.074;9.158;2023-02-18T11:37:34;100445.31;;;13.90;67.62
34177;BME280;20450;49.074;9.158;2023-02-18T11:40:04;100444.66;;;14.01;66.99
34177;BME280;20450;49.074;9.158;2023-02-18T11:42:32;100434.56;;;14.08;66.75
34177;BME280;20450;49.074;9.158;2023-02-18T11:44:59;100428.88;;;14.16;66.45
34177;BME280;20450;49.074;9.158;2023-02-18T11:47:32;100422.66;;;14.09;66.48
34177;BME280;20450;49.074;9.158;2023-02-18T11:50:14;100423.28;;;14.11;66.31
34177;BME280;20450;49.074;9.158;2023-02-18T11:52:46;100419.69;;;14.17;66.49
34177;BME280;20450;49.074;9.158;2023-02-18T11:55:17;100421.78;;;14.15;65.98
34177;BME280;20450;49.074;9.158;2023-02-18T11:57:49;100425.34;;;14.16;66.43
34177;BME280;20450;49.074;9.158;2023-02-18T12:00:30;100416.97;;;14.17;65.85
34177;BME280;20450;49.074;9.158;2023-02-18T12:03:12;100423.47;;;14.16;66.32
34177;BME280;20450;49.074;9.158;2023-02-18T12:05:48;100421.56;;;14.17;66.22
34177;BME280;20450;49.074;9.158;2023-02-18T12:08:21;100416.13;;;14.17;66.71
34177;BME280;20450;49.074;9.158;2023-02-18T12:10:56;100423.63;;;14.21;66.59
34177;BME280;20450;49.074;9.158;2023-02-18T12:13:32;100415.91;;;14.25;66.53
34177;BME280;20450;49.074;9.158;2023-02-18T12:16:10;100409.00;;;14.22;66.61
34177;BME280;20450;49.074;9.158;2023-02-18T12:19:05;100404.88;;;14.13;66.77
34177;BME280;20450;49.074;9.158;2023-02-18T12:21:58;100398.78;;;14.18;67.08
34177;BME280;20450;49.074;9.158;2023-02-18T12:24:43;100396.09;;;14.11;66.89
34177;BME280;20450;49.074;9.158;2023-02-18T12:27:27;100402.75;;;14.15;67.21
34177;BME280;20450;49.074;9.158;2023-02-18T12:30:20;100386.44;;;14.15;67.31
34177;BME280;20450;49.074;9.158;2023-02-18T12:33:04;100377.63;;;14.26;67.12
34177;BME280;20450;49.074;9.158;2023-02-18T12:35:53;100375.47;;;14.35;66.97
34177;BME280;20450;49.074;9.158;2023-02-18T12:39:00;100381.78;;;14.29;66.42
34177;BME280;20450;49.074;9.158;2023-02-18T12:41:51;100369.25;;;14.21;66.64
34177;BME280;20450;49.074;9.158;2023-02-18T12:46:01;100353.72;;;14.35;66.24
34177;BME280;20450;49.074;9.158;2023-02-18T12:48:58;100358.81;;;14.49;66.08
34177;BME280;20450;49.074;9.158;2023-02-18T12:51:43;100356.94;;;14.50;66.46
34177;BME280;20450;49.074;9.158;2023-02-18T12:54:47;100375.13;;;14.49;66.22
34177;BME280;20450;49.074;9.158;2023-02-18T12:57:38;100360.78;;;14.42;65.74
34177;BME280;20450;49.074;9.158;2023-02-18T13:00:28;100363.25;;;14.44;66.02
34177;BME280;20450;49.074;9.158;2023-02-18T13:03:44;100356.94;;;14.50;65.21
34177;BME280;20450;49.074;9.158;2023-02-18T13:06:55;100353.22;;;14.44;65.34
34177;BME280;20450;49.074;9.158;2023-02-18T13:13:18;100357.78;;;14.50;65.59
34177;BME280;20450;49.074;9.158;2023-02-18T13:15:49;100350.22;;;14.52;65.16
34177;BME280;20450;49.074;9.158;2023-02-18T13:18:24;100345.41;;;14.54;65.40
34177;BME280;20450;49.074;9.158;2023-02-18T13:20:58;100354.31;;;14.43;65.37
34177;BME280;20450;49.074;9.158;2023-02-18T13:23:34;100333.59;;;14.42;65.58
34177;BME280;20450;49.074;9.158;2023-02-18T13:26:07;100340.50;;;14.45;65.48
34177;BME280;20450;49.074;9.158;2023-02-18T13:28:43;100329.75;;;14.50;65.89
34177;BME280;20450;49.074;9.158;2023-02-18T13:31:26;100325.75;;;14.52;65.39
34177;BME280;20450;49.074;9.158;2023-02-18T13:34:07;100328.13;;;14.67;65.08
34177;BME280;20450;49.074;9.158;2023-02-18T13:36:52;100338.22;;;14.60;65.17
34177;BME280;20450;49.074;9.158;2023-02-18T13:39:29;100338.91;;;14.55;65.61
34177;BME280;20450;49.074;9.158;2023-02-18T13:42:23;100327.56;;;14.58;65.13
34177;BME280;20450;49.074;9.158;2023-02-18T13:45:22;100331.97;;;14.59;64.17
34177;BME280;20450;49.074;9.158;2023-02-18T13:47:52;100317.72;;;14.64;64.65
34177;BME280;20450;49.074;9.158;2023-02-18T13:50:32;100320.72;;;14.56;64.32
34177;BME280;20450;49.074;9.158;2023-02-18T13:53:24;100321.78;;;14.55;64.68
34177;BME280;20450;49.074;9.158;2023-02-18T13:56:00;100320.94;;;14.54;64.69
34177;BME280;20450;49.074;9.158;2023-02-18T13:58:35;100328.03;;;14.55;64.04
34177;BME280;20450;49.074;9.158;2023-02-18T14:01:22;100324.94;;;14.52;64.49
34177;BME280;20450;49.074;9.158;2023-02-18T14:07:46;100311.16;;;14.71;63.58
34177;BME280;20450;49.074;9.158;2023-02-18T14:10:26;100308.44;;;14.71;62.77
34177;BME280;20450;49.074;9.158;2023-02-18T14:13:36;100303.97;;;14.77;62.08
34177;BME280;20450;49.074;9.158;2023-02-18T14:16:18;100301.78;;;14.85;61.66
34177;BME280;20450;49.074;9.158;2023-02-18T14:19:26;100295.19;;;14.75;61.46
34177;BME280;20450;49.074;9.158;2023-02-18T14:22:23;100309.78;;;14.80;61.77
34177;BME280;20450;49.074;9.158;2023-02-18T14:24:56;100300.19;;;14.78;60.54
34177;BME280;20450;49.074;9.158;2023-02-18T14:27:28;100300.09;;;14.66;60.79
34177;BME280;20450;49.074;9.158;2023-02-18T14:30:02;100292.78;;;14.67;60.53
34177;BME280;20450;49.074;9.158;2023-02-18T14:32:33;100298.44;;;14.65;60.45
34177;BME280;20450;49.074;9.158;2023-02-18T14:35:11;100297.84;;;14.63;60.65
34177;BME280;20450;49.074;9.158;2023-02-18T14:38:29;100300.03;;;14.73;59.63
34177;BME280;20450;49.074;9.158;2023-02-18T14:41:21;100305.84;;;14.76;59.34
34177;BME280;20450;49.074;9.158;2023-02-18T14:44:28;100294.97;;;14.76;58.59
34177;BME280;20450;49.074;9.158;2023-02-18T14:47:19;100307.19;;;14.67;58.35
34177;BME280;20450;49.074;9.158;2023-02-18T14:49:57;100300.56;;;14.63;57.91
34177;BME280;20450;49.074;9.158;2023-02-18T14:53:10;100307.41;;;14.66;57.50
34177;BME280;20450;49.074;9.158;2023-02-18T14:55:44;100305.75;;;14.65;56.97
34177;BME280;20450;49.074;9.158;2023-02-18T14:58:24;100298.28;;;14.60;57.28
34177;BME280;20450;49.074;9.158;2023-02-18T15:00:56;100307.41;;;14.66;57.16
34177;BME280;20450;49.074;9.158;2023-02-18T15:03:25;100293.47;;;14.62;57.15
34177;BME280;20450;49.074;9.158;2023-02-18T15:05:55;100294.50;;;14.61;57.53
34177;BME280;20450;49.074;9.158;2023-02-18T15:08:24;100289.44;;;14.65;57.05
34177;BME280;20450;49.074;9.158;2023-02-18T15:10:55;100296.75;;;14.64;57.38
34177;BME280;20450;49.074;9.158;2023-02-18T15:13:29;100294.03;;;14.64;57.39
34177;BME280;20450;49.074;9.158;2023-02-18T15:16:02;100281.53;;;14.63;57.23
34177;BME280;20450;49.074;9.158;2023-02-18T15:18:40;100281.13;;;14.60;56.91
34177;BME280;20450;49.074;9.158;2023-02-18T15:21:19;100289.50;;;14.58;57.25
34177;BME280;20450;49.074;9.158;2023-02-18T15:23:52;100284.97;;;14.52;57.20
34177;BME280;20450;49.074;9.158;2023-02-18T15:26:45;100271.69;;;14.44;56.69
34177;BME280;20450;49.074;9.158;2023-02-18T15:29:35;100283.41;;;14.45;57.08
34177;BME280;20450;49.074;9.158;2023-02-18T15:32:14;100284.88;;;14.41;56.94
34177;BME280;20450;49.074;9.158;2023-02-18T15:35:17;100276.38;;;14.37;57.43
34177;BME280;20450;49.074;9.158;2023-02-18T15:37:55;100273.09;;;14.29;57.76
34177;BME280;20450;49.074;9.158;2023-02-18T15:40:27;100273.09;;;14.29;57.88
34177;BME280;20450;49.074;9.158;2023-02-18T15:43:01;100278.91;;;14.32;57.58
34177;BME280;20450;49.074;9.158;2023-02-18T15:49:58;100285.47;;;14.25;58.23
34177;BME280;20450;49.074;9.158;2023-02-18T15:52:30;100282.75;;;14.18;58.86
34177;BME280;20450;49.074;9.158;2023-02-18T15:55:02;100277.78;;;14.15;58.85
34177;BME280;20450;49.074;9.158;2023-02-18T15:57:35;100281.09;;;14.17;59.11
34177;BME280;20450;49.074;9.158;2023-02-18T16:00:09;100275.66;;;14.17;59.00
34177;BME280;20450;49.074;9.158;2023-02-18T16:02:52;100277.19;;;14.13;58.95
34177;BME280;20450;49.074;9.158;2023-02-18T16:05:24;100288.94;;;14.07;59.26
34177;BME280;20450;49.074;9.158;2023-02-18T16:07:58;100292.31;;;14.03;59.28
34177;BME280;20450;49.074;9.158;2023-02-18T16:10:49;100284.59;;;14.00;59.31
34177;BME280;20450;49.074;9.158;2023-02-18T16:13:21;100285.28;;;13.95;59.53
34177;BME280;20450;49.074;9.158;2023-02-18T16:15:52;100287.38;;;13.93;59.50
34177;BME280;20450;49.074;9.158;2023-02-18T16:18:29;100290.06;;;13.93;59.59
34177;BME280;20450;49.074;9.158;2023-02-18T16:21:06;100301.38;;;13.90;59.62
34177;BME280;20450;49.074;9.158;2023-02-18T16:23:52;100298.88;;;13.88;60.40
34177;BME280;20450;49.074;9.158;2023-02-18T16:26:27;100294.50;;;13.88;60.08
34177;BME280;20450;49.074;9.158;2023-02-18T16:29:05;100297.22;;;13.88;59.92
34177;BME280;20450;49.074;9.158;2023-02-18T16:31:40;100296.69;;;13.79;60.20
34177;BME280;20450;49.074;9.158;2023-02-18T16:34:07;100306.91;;;13.77;60.34
34177;BME280;20450;49.074;9.158;2023-02-18T16:36:34;100313.00;;;13.72;60.39
34177;BME280;20450;49.074;9.158;2023-02-18T16:39:01;100315.09;;;13.70;60.77
34177;BME280;20450;49.074;9.158;2023-02-18T16:41:30;100325.78;;;13.65;60.76
34177;BME280;20450;49.074;9.158;2023-02-18T16:43:57;100328.28;;;13.67;60.81
34177;BME280;20450;49.074;9.158;2023-02-18T16:46:24;100321.66;;;13.56;61.27
34177;BME280;20450;49.074;9.158;2023-02-18T16:48:53;100335.25;;;13.56;61.55